createdAt,value
2023-01-18T00:03:58.375Z,93309.00
2023-01-18T00:08:03.115Z,93310.00
2023-01-18T00:12:06.650Z,93328.00
2023-01-18T00:16:14.917Z,93326.00
2023-01-18T00:20:20.093Z,93322.00
2023-01-18T00:24:29.712Z,93327.00
2023-01-18T00:28:32.863Z,93321.00
2023-01-18T00:32:38.737Z,93325.00
2023-01-18T00:36:44.152Z,93330.00
2023-01-18T00:40:53.340Z,93322.00
2023-01-18T00:44:56.365Z,93321.00
2023-01-18T00:48:59.377Z,93305.00
2023-01-18T00:53:02.399Z,93313.00
2023-01-18T00:57:08.509Z,93297.00
2023-01-18T01:01:14.491Z,93317.00
2023-01-18T01:05:36.490Z,93317.00
2023-01-18T01:09:39.464Z,93336.00
2023-01-18T01:14:03.997Z,93333.00
2023-01-18T01:18:24.324Z,93337.00
2023-01-18T01:22:46.019Z,93332.00
2023-01-18T01:26:49.054Z,93335.00
2023-01-18T01:30:58.358Z,93342.00
2023-01-18T01:35:01.628Z,93353.00
2023-01-18T01:39:07.145Z,93344.00
2023-01-18T01:43:14.431Z,93346.00
2023-01-18T01:47:33.742Z,93341.00
2023-01-18T01:51:40.860Z,93337.00
2023-01-18T01:55:51.917Z,93338.00
2023-01-18T02:00:07.939Z,93336.00
2023-01-18T02:04:15.286Z,93346.00
2023-01-18T02:08:23.351Z,93338.00
2023-01-18T02:12:29.884Z,93338.00
2023-01-18T02:16:45.493Z,93345.00
2023-01-18T02:21:13.418Z,93351.00
2023-01-18T02:25:43.386Z,93356.00
2023-01-18T02:30:00.156Z,93349.00
2023-01-18T02:34:10.159Z,93349.00
2023-01-18T02:38:16.574Z,93345.00
2023-01-18T02:42:39.338Z,93344.00
2023-01-18T02:46:46.474Z,93350.00
2023-01-18T02:50:50.200Z,93362.00
2023-01-18T02:54:53.621Z,93363.00
2023-01-18T02:59:00.381Z,93366.00
2023-01-18T03:03:15.356Z,93360.00
2023-01-18T03:07:28.585Z,93361.00
2023-01-18T03:11:42.608Z,93370.00
2023-01-18T03:15:49.649Z,93376.00
2023-01-18T03:20:07.259Z,93377.00
2023-01-18T03:24:14.622Z,93383.00
2023-01-18T03:28:38.696Z,93380.00
2023-01-18T03:33:01.369Z,93388.00
2023-01-18T03:37:15.737Z,93388.00
2023-01-18T03:41:21.696Z,93384.00
2023-01-18T03:45:32.048Z,93400.00
2023-01-18T03:49:39.592Z,93392.00
2023-01-18T03:53:53.177Z,93404.00
2023-01-18T03:57:59.747Z,93407.00
2023-01-18T04:02:03.684Z,93409.00
2023-01-18T04:06:12.971Z,93407.00
2023-01-18T04:10:17.840Z,93417.00
2023-01-18T04:14:21.161Z,93416.00
2023-01-18T04:18:24.150Z,93419.00
2023-01-18T04:22:28.356Z,93414.00
2023-01-18T04:26:40.149Z,93413.00
2023-01-18T04:30:44.736Z,93422.00
2023-01-18T04:34:51.981Z,93433.00
2023-01-18T04:38:56.546Z,93430.00
2023-01-18T04:43:01.353Z,93431.00
2023-01-18T04:47:04.871Z,93432.00
2023-01-18T04:51:12.795Z,93429.00
2023-01-18T04:55:21.242Z,93409.00
2023-01-18T04:59:25.680Z,93419.00
2023-01-18T05:03:29.651Z,93421.00
2023-01-18T05:07:33.962Z,93425.00
2023-01-18T05:11:40.080Z,93443.00
2023-01-18T05:15:46.966Z,93450.00
2023-01-18T05:19:50.019Z,93451.00
2023-01-18T05:23:54.918Z,93460.00
2023-01-18T05:27:57.939Z,93469.00
2023-01-18T05:32:04.433Z,93462.00
2023-01-18T05:36:08.564Z,93463.00
2023-01-18T05:40:14.264Z,93483.00
2023-01-18T05:44:19.835Z,93486.00
2023-01-18T05:48:29.084Z,93495.00
2023-01-18T05:52:32.362Z,93494.00
2023-01-18T05:56:37.832Z,93504.00
2023-01-18T06:00:40.884Z,93514.00
2023-01-18T06:04:47.834Z,93513.00
2023-01-18T06:08:50.856Z,93516.00
2023-01-18T06:12:58.741Z,93516.00
2023-01-18T06:17:05.617Z,93519.00
2023-01-18T06:21:11.516Z,93532.00
2023-01-18T06:25:14.574Z,93529.00
2023-01-18T06:29:17.567Z,93536.00
2023-01-18T06:33:20.680Z,93543.00
2023-01-18T06:37:30.730Z,93548.00
2023-01-18T06:41:33.818Z,93548.00
2023-01-18T06:45:38.379Z,93555.00
2023-01-18T06:49:45.991Z,93558.00
2023-01-18T06:53:51.253Z,93560.00
2023-01-18T06:57:55.123Z,93556.00
2023-01-18T07:01:59.709Z,93559.00
2023-01-18T07:06:04.429Z,93558.00
2023-01-18T07:10:10.692Z,93560.00
2023-01-18T07:14:16.059Z,93572.00
2023-01-18T07:18:19.361Z,93576.00
2023-01-18T07:22:22.600Z,93583.00
2023-01-18T07:26:30.614Z,93590.00
2023-01-18T07:30:39.003Z,93592.00
2023-01-18T07:34:42.013Z,93591.00
2023-01-18T07:38:45.357Z,93603.00
2023-01-18T07:42:53.016Z,93594.00
2023-01-18T07:46:58.085Z,93603.00
2023-01-18T07:51:04.289Z,93615.00
2023-01-18T07:55:09.126Z,93610.00
2023-01-18T07:59:15.961Z,93617.00
2023-01-18T08:03:26.688Z,93625.00
2023-01-18T08:07:30.998Z,93629.00
2023-01-18T08:11:34.623Z,93630.00
2023-01-18T08:15:40.446Z,93635.00
2023-01-18T08:19:43.480Z,93646.00
2023-01-18T08:23:49.262Z,93652.00
2023-01-18T08:27:53.104Z,93649.00
2023-01-18T08:32:00.822Z,93666.00
2023-01-18T08:36:03.848Z,93668.00
2023-01-18T08:40:18.336Z,93678.00
2023-01-18T08:44:29.190Z,93686.00
2023-01-18T08:48:35.396Z,93697.00
2023-01-18T08:52:57.480Z,93693.00
2023-01-18T08:57:11.324Z,93689.00
2023-01-18T09:01:17.708Z,93705.00
2023-01-18T09:05:25.036Z,93706.00
2023-01-18T09:09:28.040Z,93711.00
2023-01-18T09:13:32.993Z,93722.00
2023-01-18T09:17:36.616Z,93723.00
2023-01-18T09:21:42.727Z,93734.00
2023-01-18T09:25:47.752Z,93739.00
2023-01-18T09:29:52.527Z,93748.00
2023-01-18T09:34:17.645Z,93750.00
2023-01-18T09:38:28.677Z,93764.00
2023-01-18T09:42:37.292Z,93763.00
2023-01-18T09:46:42.925Z,93766.00
2023-01-18T09:50:56.372Z,93776.00
2023-01-18T09:55:10.168Z,93781.00
2023-01-18T09:59:24.771Z,93789.00
2023-01-18T10:03:33.341Z,93790.00
2023-01-18T10:07:46.889Z,93787.00
2023-01-18T10:12:00.895Z,93794.00
2023-01-18T10:16:15.779Z,93797.00
2023-01-18T10:20:28.611Z,93796.00
2023-01-18T10:24:53.648Z,93808.00
2023-01-18T10:29:04.188Z,93812.00
2023-01-18T10:33:20.261Z,93814.00
2023-01-18T10:37:40.560Z,93828.00
2023-01-18T10:41:45.580Z,93830.00
2023-01-18T10:45:51.120Z,93841.00
2023-01-18T10:50:04.079Z,93847.00
2023-01-18T10:54:26.393Z,93850.00
2023-01-18T10:58:32.031Z,93859.00
2023-01-18T11:02:39.299Z,93857.00
2023-01-18T11:06:48.180Z,93867.00
2023-01-18T11:11:04.816Z,93873.00
2023-01-18T11:15:31.539Z,93881.00
2023-01-18T11:19:36.230Z,93884.00
2023-01-18T11:23:44.997Z,93892.00
2023-01-18T11:27:49.099Z,93889.00
2023-01-18T11:31:55.915Z,93889.00
2023-01-18T11:36:03.640Z,93898.00
2023-01-18T11:40:28.111Z,93905.00
2023-01-18T11:44:36.151Z,93904.00
2023-01-18T11:48:46.118Z,93915.00
2023-01-18T11:52:55.718Z,93932.00
2023-01-18T11:57:02.955Z,93935.00
2023-01-18T12:01:32.399Z,93940.00
2023-01-18T12:05:54.920Z,93946.00
2023-01-18T12:10:01.638Z,93951.00
2023-01-18T12:14:16.222Z,93957.00
2023-01-18T12:18:36.886Z,93965.00
2023-01-18T12:23:06.919Z,93967.00
2023-01-18T12:27:20.760Z,93980.00
2023-01-18T12:31:37.976Z,93990.00
2023-01-18T12:35:57.821Z,94003.00
2023-01-18T12:40:14.626Z,94003.00
2023-01-18T12:44:46.230Z,94011.00
2023-01-18T12:48:56.613Z,94014.00
2023-01-18T12:53:03.740Z,94017.00
2023-01-18T12:57:10.226Z,94022.00
2023-01-18T13:01:23.070Z,94037.00
2023-01-18T13:05:36.078Z,94047.00
2023-01-18T13:09:45.880Z,94057.00
2023-01-18T13:13:52.971Z,94061.00
2023-01-18T13:18:06.560Z,94070.00
2023-01-18T13:22:19.050Z,94075.00
2023-01-18T13:26:27.000Z,94082.00
2023-01-18T13:30:38.027Z,94092.00
2023-01-18T13:34:48.629Z,94098.00
2023-01-18T13:38:54.607Z,94104.00
2023-01-18T13:42:58.364Z,94116.00
2023-01-18T13:47:02.701Z,94127.00
2023-01-18T13:51:10.388Z,94138.00
2023-01-18T13:55:26.410Z,94156.00
2023-01-18T13:59:34.500Z,94149.00
2023-01-18T14:03:40.203Z,94162.00
2023-01-18T14:07:47.087Z,94169.00
2023-01-18T14:11:55.640Z,94180.00
2023-01-18T14:16:00.328Z,94188.00
2023-01-18T14:20:33.865Z,94186.00
2023-01-18T14:24:50.094Z,94204.00
2023-01-18T14:28:55.965Z,94206.00
2023-01-18T14:33:04.023Z,94220.00
2023-01-18T14:37:33.211Z,94223.00
2023-01-18T14:41:38.445Z,94232.00
2023-01-18T14:45:48.040Z,94231.00
2023-01-18T14:49:51.182Z,94240.00
2023-01-18T14:53:58.019Z,94256.00
2023-01-18T14:58:19.624Z,94256.00
2023-01-18T15:02:27.653Z,94260.00
2023-01-18T15:06:40.267Z,94268.00
2023-01-18T15:10:45.011Z,94271.00
2023-01-18T15:14:51.500Z,94282.00
2023-01-18T15:18:56.365Z,94285.00
2023-01-18T15:23:02.555Z,94285.00
2023-01-18T15:27:07.275Z,94291.00
2023-01-18T15:31:21.176Z,94299.00
2023-01-18T15:35:26.577Z,94313.00
2023-01-18T15:39:32.543Z,94323.00
2023-01-18T15:43:38.578Z,94337.00
2023-01-18T15:47:49.415Z,94343.00
2023-01-18T15:51:57.086Z,94348.00
2023-01-18T15:56:03.575Z,94358.00
2023-01-18T16:00:33.057Z,94365.00
2023-01-18T16:04:37.516Z,94377.00
2023-01-18T16:09:00.887Z,94372.00
2023-01-18T16:13:33.068Z,94374.00
2023-01-18T16:17:39.968Z,94393.00
2023-01-18T16:21:48.668Z,94397.00
2023-01-18T16:25:53.407Z,94402.00
2023-01-18T16:30:01.512Z,94406.00
2023-01-18T16:34:19.543Z,94401.00
2023-01-18T16:38:25.422Z,94412.00
2023-01-18T16:42:37.519Z,94425.00
2023-01-18T16:46:40.835Z,94435.00
2023-01-18T16:50:44.468Z,94441.00
2023-01-18T16:54:48.911Z,94446.00
2023-01-18T16:58:52.316Z,94444.00
2023-01-18T17:02:55.733Z,94444.00
2023-01-18T17:06:59.105Z,94450.00
2023-01-18T17:11:03.479Z,94473.00
2023-01-18T17:15:12.001Z,94478.00
2023-01-18T17:19:16.101Z,94492.00
2023-01-18T17:23:23.023Z,94493.00
2023-01-18T17:27:30.996Z,94497.00
2023-01-18T17:31:51.366Z,94506.00
2023-01-18T17:35:58.404Z,94516.00
2023-01-18T17:40:12.518Z,94517.00
2023-01-18T17:44:36.798Z,94521.00
2023-01-18T17:48:40.639Z,94537.00
2023-01-18T17:52:45.039Z,94539.00
2023-01-18T17:56:48.157Z,94546.00
2023-01-18T18:00:52.748Z,94560.00
2023-01-18T18:05:02.476Z,94565.00
2023-01-18T18:09:05.823Z,94568.00
2023-01-18T18:13:12.093Z,94588.00
2023-01-18T18:17:16.537Z,94578.00
2023-01-18T18:21:19.552Z,94585.00
2023-01-18T18:25:22.699Z,94595.00
2023-01-18T18:29:26.765Z,94607.00
2023-01-18T18:33:33.804Z,94605.00
2023-01-18T18:37:37.396Z,94608.00
2023-01-18T18:41:43.957Z,94623.00
2023-01-18T18:45:47.677Z,94636.00
2023-01-18T18:49:59.410Z,94646.00
2023-01-18T18:54:05.170Z,94646.00
2023-01-18T18:58:08.238Z,94659.00
2023-01-18T19:02:16.821Z,94659.00
2023-01-18T19:06:25.216Z,94663.00
2023-01-18T19:10:30.416Z,94680.00
2023-01-18T19:14:33.834Z,94694.00
2023-01-18T19:18:37.771Z,94703.00
2023-01-18T19:22:42.326Z,94707.00
2023-01-18T19:26:47.754Z,94721.00
2023-01-18T19:30:53.166Z,94724.00
2023-01-18T19:34:59.160Z,94741.00
2023-01-18T19:39:07.012Z,94747.00
2023-01-18T19:43:12.809Z,94758.00
2023-01-18T19:47:15.920Z,94752.00
2023-01-18T19:51:23.152Z,94744.00
2023-01-18T19:55:27.965Z,94750.00
2023-01-18T19:59:31.753Z,94752.00
2023-01-18T20:03:34.756Z,94761.00
2023-01-18T20:07:44.590Z,94766.00
2023-01-18T20:11:52.932Z,94769.00
2023-01-18T20:15:58.629Z,94777.00
2023-01-18T20:20:07.725Z,94778.00
2023-01-18T20:24:12.092Z,94778.00
2023-01-18T20:28:16.518Z,94781.00
2023-01-18T20:32:19.945Z,94784.00
2023-01-18T20:36:23.139Z,94805.00
2023-01-18T20:40:28.361Z,94810.00
2023-01-18T20:44:32.884Z,94804.00
2023-01-18T20:48:40.417Z,94810.00
2023-01-18T20:52:43.965Z,94818.00
2023-01-18T20:56:47.647Z,94833.00
2023-01-18T21:00:53.575Z,94831.00
2023-01-18T21:04:56.593Z,94834.00
2023-01-18T21:09:01.593Z,94842.00
2023-01-18T21:13:04.646Z,94847.00
2023-01-18T21:17:09.248Z,94847.00
2023-01-18T21:21:13.915Z,94858.00
2023-01-18T21:25:17.032Z,94856.00
2023-01-18T21:29:23.053Z,94863.00
2023-01-18T21:33:28.375Z,94874.00
2023-01-18T21:37:33.140Z,94888.00
2023-01-18T21:41:53.654Z,94889.00
2023-01-18T21:46:02.620Z,94894.00
2023-01-18T21:50:29.794Z,94895.00
2023-01-18T21:54:38.990Z,94909.00
2023-01-18T21:58:58.151Z,94917.00
2023-01-18T22:03:01.260Z,94918.00
2023-01-18T22:07:05.686Z,94918.00
2023-01-18T22:11:11.784Z,94930.00
2023-01-18T22:15:17.324Z,94930.00
2023-01-18T22:19:25.028Z,94938.00
2023-01-18T22:23:29.407Z,94952.00
2023-01-18T22:27:34.683Z,94956.00
2023-01-18T22:31:38.129Z,94946.00
2023-01-18T22:35:45.426Z,94956.00
2023-01-18T22:39:52.419Z,94955.00
2023-01-18T22:43:56.305Z,94955.00
2023-01-18T22:47:59.805Z,94965.00
2023-01-18T22:52:05.918Z,94967.00
2023-01-18T22:56:15.112Z,94963.00
2023-01-18T23:00:22.819Z,94969.00
2023-01-18T23:04:25.881Z,94963.00
2023-01-18T23:08:38.425Z,94956.00
2023-01-18T23:12:48.584Z,94955.00
2023-01-18T23:17:12.656Z,94953.00
2023-01-18T23:21:20.998Z,94956.00
2023-01-18T23:25:25.753Z,94956.00
2023-01-18T23:29:32.884Z,94967.00
2023-01-18T23:33:38.838Z,94959.00
2023-01-18T23:37:47.746Z,94969.00
2023-01-18T23:42:11.003Z,94976.00
2023-01-18T23:46:33.168Z,94981.00
2023-01-18T23:50:53.762Z,94982.00
2023-01-18T23:54:56.812Z,94989.00
2023-01-18T23:59:00.583Z,94983.00
